Time;durP1;ratioP1;P1;durP2;ratioP2;P2;SDS_P1;SDS_P2;PMS_P1;PMS_P2;Temp;Humidity;BMP_temperature;BMP_pressure;BME280_temperature;BME280_humidity;BME280_pressure;Samples;Min_cycle;Max_cycle;Signal;HPM_P1;HPM_P2
2023/01/01 00:04:56;;;;;;;1.40;0.70;;;;;;;16.58;62.78;97039.09;10402841;28;20319;-30
2023/01/01 00:15:16;;;;;;;1.30;0.90;;;;;;;16.61;63.84;97040.81;10400616;28;20293;-31
2023/01/01 00:20:16;;;;;;;1.20;0.70;;;;;;;16.58;63.32;97031.53;10400413;28;20517;-32
2023/01/01 00:25:17;;;;;;;0.73;0.60;;;;;;;16.60;62.13;97034.06;10394865;28;20205;-30
2023/01/01 00:30:17;;;;;;;1.10;0.73;;;;;;;16.59;63.52;97028.16;10404266;28;20037;-30
2023/01/01 00:35:18;;;;;;;0.80;0.80;;;;;;;16.64;65.49;97026.53;10393672;28;20041;-31
2023/01/01 00:40:20;;;;;;;0.73;0.57;;;;;;;16.67;65.68;97017.28;10398997;28;20037;-30
2023/01/01 00:45:21;;;;;;;0.70;0.70;;;;;;;16.67;65.06;97043.41;10395011;28;20041;-30
2023/01/01 00:50:22;;;;;;;1.05;0.73;;;;;;;16.62;64.54;97017.25;10400021;28;20045;-29
2023/01/01 00:55:22;;;;;;;0.90;0.68;;;;;;;16.61;64.54;97021.44;10396574;28;20509;-29
2023/01/01 01:00:23;;;;;;;1.10;0.73;;;;;;;16.59;64.59;97013.00;10401828;28;20033;-30
2023/01/01 01:05:23;;;;;;;0.97;0.60;;;;;;;16.61;64.96;97025.66;10395992;28;20106;-31
2023/01/01 01:10:24;;;;;;;0.73;0.60;;;;;;;16.56;64.42;97018.03;10397930;28;20030;-31
2023/01/01 01:15:25;;;;;;;0.60;0.50;;;;;;;16.54;64.25;97019.66;10399411;28;20044;-30
2023/01/01 01:20:25;;;;;;;0.63;0.60;;;;;;;16.56;64.68;97028.13;10399860;28;20037;-30
2023/01/01 01:25:25;;;;;;;0.97;0.80;;;;;;;16.58;64.54;97029.00;10399992;28;20465;-31
2023/01/01 01:30:26;;;;;;;1.17;0.53;;;;;;;16.58;64.07;97031.53;10410157;28;20448;-32
2023/01/01 01:35:28;;;;;;;0.90;0.70;;;;;;;16.58;63.67;97025.59;10398917;28;20491;-30
2023/01/01 01:40:28;;;;;;;0.80;0.68;;;;;;;16.54;62.90;97044.09;10405144;28;20080;-31
2023/01/01 01:45:29;;;;;;;0.88;0.88;;;;;;;16.52;64.05;97051.66;10400420;28;20129;-30
2023/01/01 01:50:38;;;;;;;0.70;0.67;;;;;;;16.57;62.68;97075.31;10404419;28;20025;-31
2023/01/01 01:55:43;;;;;;;1.80;0.80;;;;;;;16.61;65.52;97074.50;10396144;28;20296;-30
2023/01/01 02:00:44;;;;;;;1.23;0.80;;;;;;;16.67;65.46;97092.28;10412073;28;20040;-30
2023/01/01 02:05:45;;;;;;;1.27;0.60;;;;;;;16.63;64.96;97074.53;10401908;28;20037;-31
2023/01/01 02:10:46;;;;;;;0.63;0.57;;;;;;;16.54;64.53;97076.97;10398549;28;20064;-30
2023/01/01 02:15:52;;;;;;;2.17;0.73;;;;;;;16.58;64.15;97079.53;10406972;28;20090;-30
2023/01/01 02:21:02;;;;;;;0.60;0.60;;;;;;;16.59;64.78;97083.75;10401712;28;20037;-31
2023/01/01 02:26:20;;;;;;;0.90;0.63;;;;;;;16.59;64.68;97073.66;10398131;28;20050;-30
2023/01/01 02:31:26;;;;;;;1.23;1.13;;;;;;;16.49;64.93;97066.78;10407318;28;20065;-30
2023/01/01 02:36:30;;;;;;;1.15;0.70;;;;;;;16.55;64.31;97061.78;10397332;28;20060;-30
2023/01/01 02:41:37;;;;;;;1.33;0.63;;;;;;;16.49;64.36;97056.69;10402545;28;20087;-30
2023/01/01 02:46:38;;;;;;;1.13;0.77;;;;;;;16.56;64.53;97068.56;10469815;27;20578;-30
2023/01/01 02:52:03;;;;;;;1.37;1.20;;;;;;;16.46;64.47;97046.50;10397760;28;20045;-32
2023/01/01 02:57:12;;;;;;;1.27;0.68;;;;;;;16.54;63.89;97070.19;10393062;28;20121;-30
2023/01/01 03:02:20;;;;;;;0.63;0.43;;;;;;;16.55;64.18;97071.91;10399113;28;20166;-30
2023/01/01 03:07:37;;;;;;;2.15;0.90;;;;;;;16.53;63.58;97068.50;10393368;28;20042;-30
2023/01/01 03:12:53;;;;;;;1.10;0.80;;;;;;;16.54;65.09;97070.19;10393941;28;20029;-32
2023/01/01 03:18:23;;;;;;;2.08;0.60;;;;;;;16.61;65.60;97066.94;10398104;28;20044;-30
2023/01/01 03:23:28;;;;;;;0.52;0.52;;;;;;;16.59;65.54;97050.03;10397109;28;20033;-30
2023/01/01 03:28:34;;;;;;;0.75;0.60;;;;;;;16.56;65.22;97055.94;10399134;28;20041;-30
2023/01/01 03:33:45;;;;;;;0.63;0.60;;;;;;;16.58;64.33;97060.97;10392274;28;20030;-30
2023/01/01 03:38:47;;;;;;;0.70;0.60;;;;;;;16.55;64.37;97051.69;10393312;28;20029;-30
2023/01/01 03:44:17;;;;;;;0.88;0.52;;;;;;;16.56;64.27;97062.66;10395807;28;20444;-30
2023/01/01 03:49:18;;;;;;;0.93;0.75;;;;;;;16.54;64.83;97047.47;10403786;28;20083;-30
2023/01/01 03:54:37;;;;;;;1.02;0.88;;;;;;;16.55;64.88;97048.31;10392662;28;20048;-31
2023/01/01 03:59:56;;;;;;;1.25;0.88;;;;;;;16.54;64.41;97050.00;10389843;28;20037;-29
2023/01/01 04:05:00;;;;;;;0.80;0.70;;;;;;;16.53;64.33;97053.34;10399357;28;20041;-31
2023/01/01 04:10:15;;;;;;;0.68;0.68;;;;;;;16.54;63.91;97059.25;10392042;28;20116;-30
2023/01/01 04:15:22;;;;;;;0.60;0.60;;;;;;;16.53;64.75;97067.69;10391334;28;20034;-32
2023/01/01 04:20:24;;;;;;;0.60;0.60;;;;;;;16.52;64.42;97069.34;10397597;28;20037;-30
2023/01/01 04:25:26;;;;;;;1.08;0.70;;;;;;;16.50;64.34;97057.50;10437493;28;20419;-30
2023/01/01 04:30:27;;;;;;;0.98;0.70;;;;;;;16.51;63.51;97055.00;10393902;28;20171;-30
2023/01/01 04:35:27;;;;;;;1.00;0.90;;;;;;;16.46;64.53;97046.50;10392097;28;20498;-31
2023/01/01 04:40:27;;;;;;;1.27;0.70;;;;;;;16.59;65.32;97048.38;10394635;28;20042;-30
2023/01/01 04:45:28;;;;;;;0.67;0.57;;;;;;;16.59;64.97;97043.31;10397293;28;20363;-32
2023/01/01 04:50:28;;;;;;;0.65;0.63;;;;;;;16.51;64.57;97044.91;10397584;28;20034;-30
2023/01/01 04:55:28;;;;;;;0.80;0.70;;;;;;;16.47;63.91;97042.31;10477403;27;20079;-29
2023/01/01 05:00:29;;;;;;;0.73;0.60;;;;;;;16.47;64.11;97030.53;10425670;27;20074;-28
2023/01/01 05:05:29;;;;;;;0.97;0.67;;;;;;;16.53;64.58;97038.19;10398188;28;20040;-28
2023/01/01 05:10:29;;;;;;;0.67;0.60;;;;;;;16.53;64.72;97022.19;10395109;28;20033;-28
2023/01/01 05:15:30;;;;;;;1.03;0.63;;;;;;;16.53;64.61;97043.25;10396816;28;20094;-28
2023/01/01 05:20:30;;;;;;;0.87;0.50;;;;;;;16.50;64.43;97042.34;10395553;28;20041;-28
2023/01/01 05:25:30;;;;;;;0.50;0.50;;;;;;;16.50;64.52;97042.34;10392459;28;20459;-28
2023/01/01 05:30:31;;;;;;;0.73;0.70;;;;;;;16.51;64.38;97049.09;10400198;28;20044;-28
2023/01/01 05:35:31;;;;;;;0.80;0.63;;;;;;;16.51;64.95;97049.09;10391505;28;20040;-28
2023/01/01 05:40:31;;;;;;;0.50;0.40;;;;;;;16.50;64.51;97038.16;10402257;28;20117;-28
2023/01/01 05:45:32;;;;;;;0.87;0.63;;;;;;;16.50;64.84;97049.94;10390625;28;20057;-28
2023/01/01 05:50:32;;;;;;;0.57;0.55;;;;;;;16.51;64.82;97055.00;10387661;28;20037;-28
2023/01/01 05:55:33;;;;;;;0.80;0.57;;;;;;;16.49;65.26;97061.72;10393288;28;20587;-28
2023/01/01 06:00:33;;;;;;;0.50;0.40;;;;;;;16.56;65.56;97057.59;10393073;28;20030;-28
2023/01/01 06:05:34;;;;;;;0.90;0.70;;;;;;;16.56;64.63;97063.50;10403951;28;20033;-28
2023/01/01 06:10:35;;;;;;;0.63;0.57;;;;;;;16.52;64.59;97068.50;10397253;28;20058;-29
2023/01/01 06:15:35;;;;;;;0.90;0.53;;;;;;;16.44;64.00;97060.81;10402968;28;20097;-29
2023/01/01 06:20:35;;;;;;;0.60;0.60;;;;;;;16.50;63.86;97078.59;10400616;28;20037;-28
2023/01/01 06:25:35;;;;;;;0.67;0.60;;;;;;;16.52;64.15;97081.97;10403320;28;20037;-28
2023/01/01 06:30:36;;;;;;;1.10;1.00;;;;;;;16.51;64.63;97085.34;10400969;28;20040;-28
2023/01/01 06:35:37;;;;;;;0.60;0.50;;;;;;;16.49;64.68;97097.13;10395815;28;20483;-27
2023/01/01 06:40:37;;;;;;;0.90;0.60;;;;;;;16.49;64.53;97097.13;10402165;28;20107;-28
2023/01/01 06:45:37;;;;;;;0.60;0.40;;;;;;;16.49;64.19;97103.84;10398871;28;20348;-28
2023/01/01 06:50:37;;;;;;;0.50;0.50;;;;;;;16.47;64.36;97103.84;10396908;28;20101;-28
2023/01/01 06:55:38;;;;;;;0.83;0.70;;;;;;;16.44;64.40;97087.78;10402746;28;20110;-28
2023/01/01 07:00:38;;;;;;;0.50;0.50;;;;;;;16.47;64.20;97108.88;10382637;28;20034;-28
2023/01/01 07:05:38;;;;;;;0.53;0.53;;;;;;;16.42;64.16;97109.63;10400813;28;20132;-27
2023/01/01 07:10:39;;;;;;;0.63;0.63;;;;;;;16.47;64.14;97095.38;10398022;28;20059;-28
2023/01/01 07:15:39;;;;;;;0.70;0.60;;;;;;;16.46;65.24;97097.06;10399386;28;20037;-27
2023/01/01 07:20:40;;;;;;;0.47;0.40;;;;;;;16.50;65.01;97088.69;10399217;28;20399;-27
2023/01/01 07:25:41;;;;;;;0.83;0.60;;;;;;;16.52;64.81;97092.09;10403703;28;20121;-28
2023/01/01 07:30:41;;;;;;;0.73;0.60;;;;;;;16.47;64.32;97073.50;10401011;28;20367;-28
2023/01/01 07:35:44;;;;;;;0.80;0.75;;;;;;;16.48;63.80;97105.53;10394836;28;20033;-28
2023/01/01 07:40:45;;;;;;;0.55;0.55;;;;;;;16.48;63.93;97104.66;10397441;28;20041;-31
2023/01/01 07:45:45;;;;;;;0.30;0.30;;;;;;;16.42;64.09;97100.38;10394556;28;20037;-28
2023/01/01 07:50:45;;;;;;;0.90;0.60;;;;;;;16.46;64.24;97111.38;10396119;28;20037;-28
2023/01/01 07:55:46;;;;;;;0.60;0.52;;;;;;;16.47;64.16;97129.09;10397869;28;20045;-28
2023/01/01 08:00:47;;;;;;;0.95;0.68;;;;;;;16.48;64.38;97132.47;10397790;28;20091;-28
2023/01/01 08:05:47;;;;;;;0.40;0.40;;;;;;;16.45;64.26;97135.78;10398160;28;20543;-30
2023/01/01 08:10:48;;;;;;;0.90;0.60;;;;;;;16.44;64.21;97151.78;10398871;28;20041;-30
2023/01/01 08:15:50;;;;;;;0.40;0.32;;;;;;;16.46;64.32;97141.72;10399086;28;20033;-31
2023/01/01 08:20:50;;;;;;;0.60;0.50;;;;;;;16.45;63.78;97153.47;10391922;28;20041;-31
2023/01/01 08:25:51;;;;;;;0.40;0.40;;;;;;;16.43;63.98;97145.03;10398904;28;20490;-30
2023/01/01 08:30:51;;;;;;;0.63;0.63;;;;;;;16.43;64.26;97152.63;10398607;28;20042;-30
2023/01/01 08:35:51;;;;;;;0.57;0.53;;;;;;;16.44;64.81;97173.69;10394831;28;20050;-30
2023/01/01 08:40:52;;;;;;;0.67;0.60;;;;;;;16.44;65.32;97179.59;10403912;28;20586;-30
2023/01/01 08:45:52;;;;;;;0.40;0.30;;;;;;;16.50;64.96;97183.88;10397839;28;20047;-29
2023/01/01 08:51:00;;;;;;;0.50;0.50;;;;;;;16.46;64.37;97188.03;10396138;28;20035;-30
2023/01/01 08:56:06;;;;;;;0.43;0.43;;;;;;;16.47;63.78;97196.47;10398084;28;20041;-30
2023/01/01 09:01:07;;;;;;;0.30;0.30;;;;;;;16.44;63.82;97193.91;10397537;28;20049;-30
2023/01/01 09:06:07;;;;;;;0.73;0.40;;;;;;;16.38;63.88;97188.75;10398012;28;20045;-30
2023/01/01 09:11:21;;;;;;;0.40;0.38;;;;;;;16.42;64.02;97191.34;10397014;28;20503;-30
2023/01/01 09:16:22;;;;;;;0.88;0.80;;;;;;;16.44;64.50;97193.91;10402692;28;20045;-30
2023/01/01 09:21:22;;;;;;;0.77;0.60;;;;;;;16.45;63.85;97193.09;10396748;28;20037;-30
2023/01/01 09:26:22;;;;;;;0.50;0.50;;;;;;;16.43;63.77;97188.00;10400636;28;20778;-30
2023/01/01 09:31:24;;;;;;;0.80;0.60;;;;;;;16.43;63.71;97193.03;10399743;28;20021;-30
2023/01/01 09:36:30;;;;;;;0.80;0.50;;;;;;;16.43;64.30;97193.03;10393623;28;20403;-30
2023/01/01 09:41:56;;;;;;;0.73;0.50;;;;;;;16.42;63.96;97191.34;10411077;28;20468;-31
2023/01/01 09:47:00;;;;;;;0.50;0.50;;;;;;;16.41;64.20;97191.31;10399005;28;20124;-31
2023/01/01 09:52:04;;;;;;;0.52;0.47;;;;;;;16.39;64.00;97170.22;10400076;28;20032;-31
2023/01/01 09:57:09;;;;;;;0.68;0.68;;;;;;;16.42;64.84;97181.25;10404147;28;20041;-30
2023/01/01 10:02:30;;;;;;;;;;;;;;;16.45;65.17;97175.38;10402532;28;20036;-30
2023/01/01 10:07:42;;;;;;;0.52;0.40;;;;;;;16.49;64.97;97165.34;10400047;28;20386;-31
2023/01/01 10:12:57;;;;;;;0.38;0.38;;;;;;;16.40;64.65;97150.06;10394979;28;20029;-30
2023/01/01 10:18:01;;;;;;;0.20;0.20;;;;;;;16.44;63.52;97151.78;10405636;28;20491;-31
2023/01/01 10:23:10;;;;;;;0.40;0.40;;;;;;;16.43;63.88;97147.56;10400528;28;20038;-30
2023/01/01 10:28:18;;;;;;;0.40;0.40;;;;;;;16.25;63.62;97116.94;10399430;28;20068;-30
2023/01/01 10:33:19;;;;;;;0.80;0.52;;;;;;;16.39;64.31;97135.72;10399299;28;20033;-30
2023/01/01 10:38:24;;;;;;;0.97;0.40;;;;;;;16.43;63.58;97131.53;10398982;28;20037;-30
2023/01/01 10:43:25;;;;;;;0.43;0.38;;;;;;;16.42;63.93;97124.78;10402372;28;20371;-30
2023/01/01 10:48:29;;;;;;;0.88;0.40;;;;;;;16.41;64.23;97130.66;10396514;28;20121;-30
2023/01/01 10:53:41;;;;;;;0.43;0.32;;;;;;;16.41;63.94;97139.13;10399362;28;20033;-30
2023/01/01 10:58:44;;;;;;;0.63;0.40;;;;;;;16.27;64.16;97114.44;10393981;28;20038;-30
2023/01/01 11:04:12;;;;;;;0.70;0.50;;;;;;;16.42;63.95;97139.94;10400012;28;20033;-29
2023/01/01 11:09:25;;;;;;;0.43;0.40;;;;;;;16.41;63.95;97133.19;10394841;28;20041;-30
2023/01/01 11:14:28;;;;;;;0.70;0.50;;;;;;;16.35;64.58;97112.88;10400355;28;20619;-29
2023/01/01 11:19:35;;;;;;;0.55;0.38;;;;;;;16.42;64.45;97112.16;10399622;28;20510;-31
2023/01/01 11:24:37;;;;;;;;;;;;;;;16.47;65.20;97113.94;10389181;28;20045;-30
2023/01/01 11:29:37;;;;;;;0.40;0.40;;;;;;;16.48;64.76;97107.19;10401282;28;19939;-30
2023/01/01 11:34:43;;;;;;;0.45;0.38;;;;;;;16.42;64.13;97091.94;10397455;28;20046;-30
2023/01/01 11:39:47;;;;;;;0.50;0.50;;;;;;;16.42;63.57;97074.25;10396492;28;20037;-30
2023/01/01 11:44:53;;;;;;;0.30;0.30;;;;;;;16.42;63.53;97072.59;10395133;28;20048;-31
2023/01/01 11:50:01;;;;;;;0.43;0.43;;;;;;;16.41;64.00;97058.25;10395965;28;20033;-29
2023/01/01 11:55:30;;;;;;;0.63;0.45;;;;;;;16.42;64.25;97047.31;10401257;28;20025;-29
2023/01/01 12:00:34;;;;;;;0.45;0.35;;;;;;;16.41;64.17;97039.69;10397569;28;20033;-30
2023/01/01 12:06:12;;;;;;;0.55;0.40;;;;;;;16.38;63.38;97022.81;10394880;28;20406;-30
2023/01/01 12:11:15;;;;;;;;;;;;;;;16.39;63.78;97019.50;10399887;28;20033;-31
2023/01/01 12:16:21;;;;;;;0.55;0.45;;;;;;;16.38;63.54;97007.66;10399290;28;19913;-30
2023/01/01 12:21:27;;;;;;;0.50;0.40;;;;;;;16.37;63.71;96998.38;10397722;28;20203;-31
2023/01/01 12:26:45;;;;;;;0.30;0.30;;;;;;;16.38;63.79;96979.88;10395463;28;20037;-30
2023/01/01 12:32:05;;;;;;;0.52;0.35;;;;;;;16.38;63.74;96977.34;10393712;28;20423;-30
2023/01/01 12:37:25;;;;;;;0.60;0.60;;;;;;;16.39;63.39;96973.16;10395766;28;20418;-30
2023/01/01 12:42:49;;;;;;;0.50;0.40;;;;;;;16.46;64.73;96974.91;10401701;28;20102;-29
2023/01/01 12:48:07;;;;;;;0.45;0.45;;;;;;;16.49;64.71;96960.66;10391638;28;20090;-30
2023/01/01 12:53:25;;;;;;;0.35;0.35;;;;;;;16.45;64.47;96958.91;10392191;28;20041;-30
2023/01/01 12:58:37;;;;;;;0.30;0.28;;;;;;;16.43;63.12;96953.00;10394511;28;20041;-30
2023/01/01 13:03:56;;;;;;;0.30;0.28;;;;;;;16.43;63.68;96955.50;10389534;28;20051;-30
2023/01/01 13:09:05;;;;;;;0.70;0.40;;;;;;;16.42;63.85;96955.47;10396199;28;20076;-30
2023/01/01 13:14:06;;;;;;;0.30;0.30;;;;;;;16.37;63.94;96950.38;10397432;28;20445;-30
2023/01/01 13:19:24;;;;;;;0.82;0.45;;;;;;;16.42;63.68;96963.94;10397587;28;20029;-30
2023/01/01 13:24:26;;;;;;;0.68;0.50;;;;;;;16.41;63.93;96962.22;10400078;28;20110;-29
2023/01/01 13:29:31;;;;;;;0.63;0.43;;;;;;;16.35;63.88;96948.66;10407543;28;20038;-30
2023/01/01 13:34:42;;;;;;;0.43;0.30;;;;;;;16.39;63.63;96951.28;10399740;28;20406;-30
2023/01/01 13:40:02;;;;;;;0.30;0.30;;;;;;;16.39;63.95;96941.16;10406640;28;20037;-30
2023/01/01 13:45:07;;;;;;;0.60;0.60;;;;;;;16.39;63.85;96942.81;10400177;28;20128;-30
2023/01/01 13:50:27;;;;;;;0.82;0.50;;;;;;;16.33;63.85;96928.41;10400192;28;20535;-29
2023/01/01 13:55:44;;;;;;;0.47;0.35;;;;;;;16.38;63.34;96928.50;10404882;28;20053;-30
2023/01/01 14:01:23;;;;;;;0.35;0.35;;;;;;;16.44;64.66;96931.94;10397606;28;20045;-30
2023/01/01 14:06:44;;;;;;;0.50;0.50;;;;;;;16.48;64.75;96932.81;10472411;28;20042;-30
2023/01/01 14:11:44;;;;;;;0.68;0.47;;;;;;;16.48;64.34;96932.81;10395283;28;20128;-31
2023/01/01 14:16:47;;;;;;;0.20;0.20;;;;;;;16.45;63.05;96937.84;10403933;28;20499;-30
2023/01/01 14:21:47;;;;;;;2.05;0.30;;;;;;;16.42;63.32;96941.19;10397139;28;20030;-30
2023/01/01 14:26:49;;;;;;;5.30;0.50;;;;;;;16.46;61.62;96937.03;10406080;27;20045;-31
2023/01/01 14:31:49;;;;;;;3.17;0.60;;;;;;;16.45;63.45;96948.78;10430918;27;20340;-30
2023/01/01 14:36:52;;;;;;;0.63;0.57;;;;;;;16.44;60.05;96934.47;10384439;28;20397;-31
2023/01/01 14:41:56;;;;;;;0.55;0.43;;;;;;;16.47;59.63;96932.00;10374464;28;20044;-30
2023/01/01 14:46:57;;;;;;;0.35;0.20;;;;;;;16.51;59.29;96933.69;10337621;28;20407;-30
2023/01/01 14:52:16;;;;;;;0.50;0.50;;;;;;;16.50;59.99;96926.97;10393092;28;20029;-31
2023/01/01 14:57:20;;;;;;;1.35;0.30;;;;;;;16.57;61.62;96938.84;10396095;28;20667;-30
2023/01/01 15:02:22;;;;;;;1.30;0.40;;;;;;;16.58;61.64;96944.72;10400131;28;20678;-30
2023/01/01 15:07:28;;;;;;;1.67;0.30;;;;;;;16.58;60.91;96957.34;10392437;28;20392;-31
2023/01/01 15:12:29;;;;;;;0.33;0.20;;;;;;;16.59;61.33;96954.00;10391963;28;20038;-31
2023/01/01 15:17:44;;;;;;;0.50;0.50;;;;;;;16.58;60.18;96955.69;10398838;28;20418;-31
2023/01/01 15:22:45;;;;;;;2.00;0.50;;;;;;;16.57;64.20;96954.00;10395548;28;20037;-31
2023/01/01 15:27:52;;;;;;;2.55;0.70;;;;;;;16.56;64.77;96947.25;10401224;28;20038;-31
2023/01/01 15:32:54;;;;;;;1.17;0.52;;;;;;;16.57;63.13;96943.88;10403997;27;20027;-30
2023/01/01 15:37:58;;;;;;;1.17;0.60;;;;;;;16.57;63.63;96956.53;10535467;27;20039;-30
2023/01/01 15:42:59;;;;;;;0.77;0.50;;;;;;;16.53;61.76;96949.72;10411531;27;20048;-31
2023/01/01 15:48:05;;;;;;;3.50;0.50;;;;;;;16.51;62.22;96943.81;10521258;27;20027;-31
2023/01/01 15:53:17;;;;;;;2.10;0.50;;;;;;;16.53;60.52;96939.63;10479606;27;20759;-31
2023/01/01 15:58:29;;;;;;;2.30;0.68;;;;;;;16.49;60.47;96935.38;10400449;28;20357;-31
2023/01/01 16:03:32;;;;;;;6.70;0.70;;;;;;;16.49;59.67;96930.31;10399937;28;20037;-31
2023/01/01 16:08:32;;;;;;;3.90;0.80;;;;;;;16.36;58.93;96923.38;10393225;28;20040;-33
2023/01/01 16:13:32;;;;;;;4.87;0.80;;;;;;;16.41;59.68;96942.03;10397231;28;20356;-31
2023/01/01 16:18:35;;;;;;;7.77;0.60;;;;;;;16.45;60.89;96931.09;10425980;27;20496;-30
2023/01/01 16:23:36;;;;;;;4.07;0.80;;;;;;;16.51;59.90;96942.94;10478790;27;20075;-30
2023/01/01 16:28:36;;;;;;;1.97;0.60;;;;;;;16.46;59.86;96930.25;10482637;27;20181;-31
2023/01/01 16:33:38;;;;;;;3.25;0.73;;;;;;;16.47;59.10;96931.13;10478696;27;20419;-30
2023/01/01 16:38:39;;;;;;;4.63;0.80;;;;;;;16.56;59.85;96944.72;10528379;27;20109;-31
2023/01/01 16:43:41;;;;;;;8.73;1.40;;;;;;;16.53;62.49;96932.03;10463005;27;20037;-31
2023/01/01 16:48:42;;;;;;;5.95;1.67;;;;;;;16.64;64.99;96953.25;10476587;27;20048;-31
2023/01/01 16:53:43;;;;;;;8.35;1.30;;;;;;;16.61;65.01;96954.88;10423053;27;20025;-30
2023/01/01 16:58:43;;;;;;;7.85;1.33;;;;;;;16.49;62.13;96940.44;10461397;27;20034;-30
2023/01/01 17:03:44;;;;;;;6.78;0.98;;;;;;;16.56;61.46;96954.84;10466945;27;20048;-31
2023/01/01 17:08:44;;;;;;;2.93;1.00;;;;;;;16.55;61.17;96955.63;10465932;28;20036;-30
2023/01/01 17:13:46;;;;;;;6.80;1.13;;;;;;;16.54;60.37;96948.88;10462284;27;20030;-31
2023/01/01 17:18:49;;;;;;;7.57;1.10;;;;;;;16.52;61.20;96960.66;10395736;28;20327;-30
2023/01/01 17:23:50;;;;;;;3.88;1.15;;;;;;;16.52;61.37;96957.31;10393864;28;20073;-32
2023/01/01 17:28:51;;;;;;;3.15;0.90;;;;;;;16.49;61.99;96963.19;10396642;28;20084;-30
2023/01/01 17:33:53;;;;;;;5.70;1.15;;;;;;;16.48;62.41;96964.00;10395081;28;20114;-31
2023/01/01 17:38:54;;;;;;;4.63;1.10;;;;;;;16.48;61.27;96966.53;10393171;28;20041;-31
2023/01/01 17:43:56;;;;;;;4.97;0.75;;;;;;;16.47;62.77;96972.41;10391788;28;20127;-30
2023/01/01 17:48:56;;;;;;;5.97;2.25;;;;;;;16.50;60.54;96977.50;10391765;28;20041;-31
2023/01/01 17:53:57;;;;;;;3.83;1.08;;;;;;;16.49;62.49;96967.38;10396653;28;20372;-31
2023/01/01 17:58:57;;;;;;;5.33;1.43;;;;;;;16.52;64.24;96980.88;10396050;28;20042;-29
2023/01/01 18:04:01;;;;;;;5.53;1.13;;;;;;;16.58;65.22;96980.09;10404125;28;20064;-29
2023/01/01 18:09:05;;;;;;;3.70;0.90;;;;;;;16.58;64.70;96991.06;10403221;28;20394;-29
2023/01/01 18:14:06;;;;;;;5.28;2.20;;;;;;;16.58;64.18;96983.50;10404827;28;20037;-29
2023/01/01 18:19:07;;;;;;;5.72;1.00;;;;;;;16.49;63.41;96965.69;10401008;28;20038;-30
2023/01/01 18:24:14;;;;;;;1.88;0.82;;;;;;;16.57;63.56;96966.63;10398561;28;20038;-30
2023/01/01 18:29:15;;;;;;;7.07;1.20;;;;;;;16.56;63.06;96962.41;10398291;28;20039;-30
2023/01/01 18:34:17;;;;;;;1.75;0.85;;;;;;;16.57;63.85;96961.59;10400413;28;20033;-29
2023/01/01 18:39:29;;;;;;;2.70;0.83;;;;;;;16.58;63.00;96954.81;10398714;28;20102;-29
2023/01/01 18:44:30;;;;;;;3.80;1.05;;;;;;;16.55;62.71;96950.59;10394028;28;20061;-29
2023/01/01 18:49:32;;;;;;;1.17;0.70;;;;;;;16.56;61.15;96952.31;10392629;28;20037;-30
2023/01/01 18:54:34;;;;;;;1.58;0.93;;;;;;;16.56;62.51;96952.31;10401515;28;20038;-30
2023/01/01 18:59:36;;;;;;;1.92;1.00;;;;;;;16.51;62.28;96937.91;10401735;28;20556;-29
2023/01/01 19:04:36;;;;;;;2.25;0.88;;;;;;;16.54;62.02;96945.53;10401807;28;20042;-30
2023/01/01 19:09:37;;;;;;;2.70;0.77;;;;;;;16.47;62.20;96941.22;10397618;28;20033;-29
2023/01/01 19:14:37;;;;;;;7.43;1.50;;;;;;;16.58;63.71;96938.00;10401594;28;20089;-29
2023/01/01 19:19:39;;;;;;;24.17;8.90;;;;;;;16.61;65.83;96932.97;10399014;28;20037;-29
2023/01/01 19:24:42;;;;;;;24.35;8.88;;;;;;;16.67;64.47;96935.56;10400233;28;20090;-30
2023/01/01 19:29:45;;;;;;;21.48;7.70;;;;;;;16.72;64.69;96941.53;10400447;28;20033;-30
2023/01/01 19:34:45;;;;;;;18.50;5.28;;;;;;;16.78;63.28;96941.56;10397649;28;20090;-30
2023/01/01 19:39:49;;;;;;;18.13;5.57;;;;;;;16.72;63.93;96931.41;10398680;28;20146;-29
2023/01/01 19:44:49;;;;;;;14.75;5.43;;;;;;;16.74;63.58;96929.75;10398259;28;20042;-30
2023/01/01 19:49:49;;;;;;;16.30;6.33;;;;;;;16.76;66.01;96935.66;10397366;28;20037;-30
2023/01/01 19:54:50;;;;;;;18.20;5.33;;;;;;;16.75;63.85;96936.50;10395472;28;20078;-30
2023/01/01 19:59:50;;;;;;;16.57;5.70;;;;;;;16.73;64.90;96920.47;10395199;28;20041;-30
2023/01/01 20:04:51;;;;;;;14.23;5.07;;;;;;;16.76;62.53;96917.97;10393365;28;20296;-29
2023/01/01 20:09:51;;;;;;;12.05;4.85;;;;;;;16.74;63.77;96905.28;10397001;28;20575;-29
2023/01/01 20:14:52;;;;;;;14.00;4.97;;;;;;;16.73;65.86;96906.13;10393458;28;20063;-29
2023/01/01 20:19:53;;;;;;;12.93;4.45;;;;;;;16.71;66.03;96906.94;10392484;28;20384;-29
2023/01/01 20:24:53;;;;;;;12.20;4.88;;;;;;;16.70;66.34;96905.25;10394032;28;20029;-29
2023/01/01 20:29:56;;;;;;;10.07;4.33;;;;;;;16.69;66.17;96898.50;10394037;28;20041;-29
2023/01/01 20:34:56;;;;;;;14.48;4.65;;;;;;;16.71;65.86;96901.06;10390235;28;20046;-30
2023/01/01 20:39:57;;;;;;;9.70;3.73;;;;;;;16.70;65.07;96906.94;10394171;28;20491;-29
2023/01/01 20:44:57;;;;;;;11.13;4.77;;;;;;;16.70;65.60;96917.06;10394700;28;20353;-29
2023/01/01 20:49:57;;;;;;;13.37;4.20;;;;;;;16.70;65.81;96909.47;10390852;28;20292;-30
2023/01/01 20:54:58;;;;;;;8.73;4.57;;;;;;;16.69;65.89;96908.63;10391690;28;20053;-30
2023/01/01 20:59:58;;;;;;;7.07;4.77;;;;;;;16.70;65.69;96914.53;10389380;28;20037;-30
2023/01/01 21:04:58;;;;;;;12.57;3.80;;;;;;;16.69;65.83;96916.19;10394910;28;20036;-29
2023/01/01 21:09:59;;;;;;;7.73;3.67;;;;;;;16.69;65.54;96903.56;10392423;28;20041;-29
2023/01/01 21:15:00;;;;;;;14.30;4.67;;;;;;;16.69;65.43;96890.09;10392445;28;20476;-29
2023/01/01 21:20:01;;;;;;;9.18;4.07;;;;;;;16.71;65.50;96891.78;10392688;28;20030;-29
2023/01/01 21:25:13;;;;;;;8.57;3.33;;;;;;;16.68;65.10;96886.69;10391388;28;20033;-30
2023/01/01 21:30:14;;;;;;;7.57;3.22;;;;;;;16.71;64.70;96896.00;10386238;28;20504;-29
2023/01/01 21:35:30;;;;;;;8.48;3.30;;;;;;;16.70;65.04;96895.13;10395745;28;20132;-29
2023/01/01 21:40:37;;;;;;;9.17;3.33;;;;;;;16.69;65.14;96885.03;10400705;28;20045;-29
2023/01/01 21:45:41;;;;;;;7.30;3.55;;;;;;;16.69;65.59;96885.88;10388225;28;20038;-29
2023/01/01 21:50:44;;;;;;;8.20;3.47;;;;;;;16.69;65.42;96883.34;10396477;28;20129;-29
2023/01/01 21:55:53;;;;;;;9.90;3.05;;;;;;;16.72;64.25;96887.56;10400582;28;20406;-29
2023/01/01 22:00:55;;;;;;;8.68;2.97;;;;;;;16.74;64.32;96874.13;10403365;28;20547;-29
2023/01/01 22:20:22;;;;;;;7.68;2.95;;;;;;;16.94;64.59;96881.06;10420356;27;20397;-24
2023/01/01 22:25:30;;;;;;;7.03;3.25;;;;;;;16.86;64.82;96881.81;10418087;28;20077;-24
2023/01/01 22:30:41;;;;;;;10.07;3.20;;;;;;;16.80;65.31;96876.69;10400512;28;20124;-25
2023/01/01 22:35:43;;;;;;;10.95;3.42;;;;;;;16.75;65.43;96874.13;10417701;28;20048;-25
2023/01/01 22:40:47;;;;;;;7.85;3.05;;;;;;;16.73;65.84;96877.50;10420056;28;20040;-26
2023/01/01 22:45:49;;;;;;;7.40;2.63;;;;;;;16.70;64.85;96869.84;10413300;28;20060;-26
2023/01/01 22:50:51;;;;;;;8.48;3.53;;;;;;;16.70;65.44;96864.81;10408998;28;20116;-25
2023/01/01 22:55:52;;;;;;;6.40;2.72;;;;;;;16.71;65.94;96866.50;10408181;28;20078;-25
2023/01/01 23:00:52;;;;;;;6.20;2.60;;;;;;;16.73;65.85;96861.47;10401834;28;20091;-24
2023/01/01 23:05:53;;;;;;;7.40;3.43;;;;;;;16.72;65.68;96865.69;10409433;28;20034;-24
2023/01/01 23:10:53;;;;;;;5.53;2.63;;;;;;;16.69;65.25;96863.13;10394303;28;20064;-25
2023/01/01 23:16:00;;;;;;;6.25;2.58;;;;;;;16.70;65.48;96858.91;10403457;28;20417;-25
2023/01/01 23:21:06;;;;;;;5.68;3.30;;;;;;;16.68;64.71;96846.25;10387306;28;20410;-25
2023/01/01 23:26:07;;;;;;;7.10;2.40;;;;;;;16.71;64.84;96846.28;10369111;28;20093;-25
2023/01/01 23:31:11;;;;;;;4.22;2.10;;;;;;;16.68;64.63;96841.19;10392493;28;20104;-27
2023/01/01 23:36:12;;;;;;;4.75;2.60;;;;;;;16.69;65.04;96827.72;10385183;28;20023;-24
2023/01/01 23:41:12;;;;;;;4.15;2.08;;;;;;;16.68;65.51;96820.97;10391550;28;20030;-26
2023/01/01 23:46:14;;;;;;;4.40;2.07;;;;;;;16.70;65.34;96831.94;10376485;28;20044;-26
2023/01/01 23:51:18;;;;;;;4.80;2.40;;;;;;;16.72;65.51;96816.78;10377214;28;20113;-25
2023/01/01 23:56:19;;;;;;;4.03;2.65;;;;;;;16.70;65.15;96826.88;10397957;28;20029;-25
